createdAt,value
2018-12-09T00:02:35.742Z,8.62
2018-12-09T00:07:51.101Z,8.71
2018-12-09T00:18:26.793Z,8.63
2018-12-09T00:23:37.174Z,8.56
2018-12-09T00:28:53.893Z,8.48
2018-12-09T00:39:36.773Z,8.46
2018-12-09T00:44:43.741Z,8.46
2018-12-09T00:50:12.050Z,8.55
2018-12-09T00:55:19.705Z,8.50
2018-12-09T01:00:23.289Z,8.51
2018-12-09T01:05:46.684Z,8.60
2018-12-09T01:10:57.615Z,8.53
2018-12-09T01:16:14.241Z,8.44
2018-12-09T01:21:27.701Z,8.38
2018-12-09T01:32:08.125Z,8.23
2018-12-09T01:54:20.464Z,8.37
2018-12-09T01:59:33.405Z,8.34
2018-12-09T02:10:13.273Z,8.39
2018-12-09T02:15:26.341Z,8.31
2018-12-09T02:20:33.497Z,8.26
2018-12-09T02:25:39.964Z,8.20
2018-12-09T02:30:47.100Z,8.11
2018-12-09T02:36:09.395Z,8.13
2018-12-09T02:46:53.494Z,8.39
2018-12-09T02:52:07.841Z,8.41
2018-12-09T02:57:14.905Z,8.45
2018-12-09T03:02:27.063Z,8.44
2018-12-09T03:07:40.680Z,8.34
2018-12-09T03:12:51.127Z,8.52
2018-12-09T03:18:07.023Z,8.50
2018-12-09T03:23:18.049Z,8.38
2018-12-09T03:28:25.617Z,8.25
2018-12-09T03:33:39.182Z,8.23
2018-12-09T03:38:42.721Z,8.24
2018-12-09T03:43:49.948Z,8.22
2018-12-09T03:49:00.497Z,8.15
2018-12-09T03:54:16.210Z,8.03
2018-12-09T03:59:29.728Z,7.68
2018-12-09T04:04:36.501Z,7.50
2018-12-09T04:09:43.763Z,7.34
2018-12-09T04:14:52.983Z,7.22
2018-12-09T04:20:00.033Z,7.10
2018-12-09T04:25:09.563Z,6.99
2018-12-09T04:35:47.668Z,6.97
2018-12-09T04:40:57.962Z,7.00
2018-12-09T05:08:04.997Z,7.02
2018-12-09T05:24:07.033Z,6.96
2018-12-09T05:29:14.315Z,6.97
2018-12-09T05:34:21.121Z,7.05
2018-12-09T05:50:44.145Z,6.94
2018-12-09T05:55:54.528Z,6.80
2018-12-09T06:01:01.272Z,6.72
2018-12-09T06:06:15.140Z,6.78
2018-12-09T06:11:22.383Z,6.68
2018-12-09T06:16:41.810Z,6.82
2018-12-09T06:32:58.357Z,6.67
2018-12-09T06:38:06.337Z,6.76
2018-12-09T06:43:16.455Z,6.77
2018-12-09T06:53:57.233Z,6.96
2018-12-09T06:59:23.217Z,7.06
2018-12-09T07:26:40.801Z,7.35
2018-12-09T07:42:45.282Z,7.34
2018-12-09T07:47:56.106Z,7.46
2018-12-09T07:53:11.547Z,7.56
2018-12-09T07:58:32.629Z,7.60
2018-12-09T08:03:42.798Z,7.74
2018-12-09T08:08:51.684Z,7.75
2018-12-09T08:14:03.477Z,8.08
2018-12-09T08:19:10.491Z,7.80
2018-12-09T08:24:26.135Z,7.78
2018-12-09T08:35:11.223Z,7.79
2018-12-09T08:40:22.574Z,7.91
2018-12-09T08:45:38.545Z,8.03
2018-12-09T08:50:47.637Z,7.86
2018-12-09T08:55:56.888Z,7.80
2018-12-09T09:01:08.558Z,8.00
2018-12-09T09:06:23.018Z,8.04
2018-12-09T09:11:36.292Z,7.90
2018-12-09T09:16:40.083Z,8.12
2018-12-09T09:21:49.171Z,8.24
2018-12-09T09:32:29.905Z,8.13
2018-12-09T09:37:46.698Z,8.04
2018-12-09T09:42:54.455Z,7.92
2018-12-09T09:53:35.193Z,7.71
2018-12-09T10:04:18.615Z,7.64
2018-12-09T10:15:12.437Z,7.43
2018-12-09T10:25:56.499Z,7.47
2018-12-09T10:36:36.988Z,7.54
2018-12-09T10:47:26.316Z,7.34
2018-12-09T11:03:35.657Z,7.07
2018-12-09T11:08:49.628Z,7.12
2018-12-09T11:13:58.280Z,7.08
2018-12-09T11:19:05.816Z,6.96
2018-12-09T11:24:18.510Z,6.99
2018-12-09T11:40:02.908Z,6.71
2018-12-09T11:56:15.999Z,6.91
2018-12-09T12:01:25.169Z,6.99
2018-12-09T12:12:03.705Z,6.78
2018-12-09T12:22:41.418Z,6.93
2018-12-09T12:59:16.622Z,6.10
2018-12-09T13:04:28.179Z,6.17
2018-12-09T13:15:10.088Z,6.41
2018-12-09T13:20:28.091Z,6.44
2018-12-09T13:25:43.191Z,6.59
2018-12-09T13:30:50.360Z,6.57
2018-12-09T13:35:59.867Z,6.76
2018-12-09T13:41:07.878Z,6.81
2018-12-09T13:46:18.263Z,6.88
2018-12-09T13:51:25.692Z,7.03
2018-12-09T13:56:34.758Z,6.95
2018-12-09T14:01:48.973Z,7.17
2018-12-09T14:07:02.818Z,7.09
2018-12-09T14:12:08.246Z,7.31
2018-12-09T14:17:17.631Z,7.37
2018-12-09T14:22:27.153Z,7.49
2018-12-09T14:27:37.426Z,7.64
2018-12-09T14:32:46.837Z,7.33
2018-12-09T14:38:01.430Z,8.05
2018-12-09T14:54:07.413Z,7.53
2018-12-09T14:59:10.872Z,6.72
2018-12-09T15:04:26.914Z,6.42
2018-12-09T15:09:33.975Z,6.22
2018-12-09T15:14:38.590Z,6.17
2018-12-09T15:19:51.781Z,5.98
2018-12-09T15:24:59.271Z,5.86
2018-12-09T15:30:20.825Z,5.91
2018-12-09T15:35:24.352Z,5.78
2018-12-09T15:46:08.894Z,6.01
2018-12-09T15:51:17.192Z,6.04
2018-12-09T15:56:25.148Z,6.14
2018-12-09T16:01:32.626Z,6.23
2018-12-09T16:06:42.021Z,6.42
2018-12-09T16:11:55.574Z,6.58
2018-12-09T16:17:02.481Z,6.47
2018-12-09T16:22:12.713Z,6.51
2018-12-09T16:32:54.665Z,6.56
2018-12-09T16:49:12.139Z,6.72
2018-12-09T16:54:29.961Z,6.76
2018-12-09T16:59:45.428Z,6.72
2018-12-09T17:04:56.165Z,6.71
2018-12-09T17:25:24.230Z,7.89
2018-12-09T17:30:31.796Z,7.40
2018-12-09T17:35:41.484Z,6.95
2018-12-09T17:40:49.502Z,6.76
2018-12-09T17:46:04.803Z,6.80
2018-12-09T17:51:11.728Z,6.82
2018-12-09T17:56:25.617Z,6.78
2018-12-09T18:01:37.758Z,6.70
2018-12-09T18:06:51.824Z,6.93
2018-12-09T18:11:59.246Z,6.91
2018-12-09T18:17:06.557Z,6.99
2018-12-09T18:22:14.819Z,6.88
2018-12-09T18:32:25.465Z,6.72
2018-12-09T18:43:02.124Z,6.71
2018-12-09T18:48:09.528Z,6.70
2018-12-09T18:58:57.271Z,6.71
2018-12-09T19:04:11.990Z,6.69
2018-12-09T19:09:20.154Z,6.59
2018-12-09T19:14:32.620Z,6.68
2018-12-09T19:19:42.045Z,6.57
2018-12-09T19:25:03.454Z,6.58
2018-12-09T19:30:18.781Z,6.70
2018-12-09T19:35:32.561Z,6.69
2018-12-09T19:40:47.853Z,6.58
2018-12-09T19:46:09.982Z,6.44
2018-12-09T19:51:23.229Z,6.40
2018-12-09T19:56:32.296Z,6.45
2018-12-09T20:01:45.704Z,6.29
2018-12-09T20:12:28.407Z,6.28
2018-12-09T20:17:48.161Z,6.19
2018-12-09T20:23:02.730Z,6.44
2018-12-09T20:28:26.529Z,6.18
2018-12-09T20:44:33.060Z,6.28
2018-12-09T20:49:48.534Z,6.26
2018-12-09T20:55:04.676Z,6.15
2018-12-09T21:00:19.068Z,6.07
2018-12-09T21:16:34.162Z,6.23
2018-12-09T21:27:20.456Z,6.08
2018-12-09T21:38:08.436Z,6.17
2018-12-09T21:43:24.073Z,6.17
2018-12-09T21:48:41.432Z,6.12
2018-12-09T21:59:18.050Z,6.13
2018-12-09T22:04:29.353Z,6.15
2018-12-09T22:09:38.448Z,6.12
2018-12-09T22:14:45.940Z,6.02
2018-12-09T22:19:53.435Z,6.02
2018-12-09T22:41:34.569Z,6.04
2018-12-09T22:46:40.179Z,6.07
2018-12-09T22:57:19.432Z,5.88
2018-12-09T23:02:31.664Z,5.77
2018-12-09T23:07:43.373Z,5.75
2018-12-09T23:12:50.706Z,5.83
2018-12-09T23:18:00.952Z,5.72
2018-12-09T23:23:08.528Z,5.80
2018-12-09T23:28:19.043Z,5.75
2018-12-09T23:33:41.700Z,5.75
2018-12-09T23:38:54.993Z,5.82
2018-12-09T23:44:04.326Z,5.75
2018-12-09T23:54:19.279Z,5.74
2018-12-09T23:59:28.458Z,5.69
